Stillwater Regional Airport
KSWO : rendu visible

Aérodrome :











RETROUVEZ-NOUS SUR...

 
LOGIN :

S'inscrire | Disclaimer

   EN    FR    IT 

 









Légende :    VFR   VFR Marginal   IFR   IFR Intensif   IFR Très Intensif
Visi : 
Plafond : 
>= 8 km
>= 3000ft
5 à 8 km
1000 à 3000 ft
1500m à 5 km
500 à 1000 ft
800 à 1500m
200 à 500 ft
< 800m
< 200 ft
Symboles :   Orages  Brouillard  Fortes neiges  Fortes précipitations  Vent > 20 kt






- Altitude de l'aérodrome : 1000 ft


KSWO - Stillwater Regional

DERNIER METAR :
  • 211553Z 34012G18KT 10SM OVC033 09/04 A3007 RMK AO2 SLP177 T00890039

METARs EXPIRÉS :
  • 211453Z 35015G20KT 10SM FEW015 OVC036 09/05 A3005 RMK AO2 SLP172 T00940050 51044
  • 211437Z 35009KT 10SM FEW016 SCT027 OVC037 09/06 A3004 RMK AO2 T00940056
  • 211353Z 34012G19KT 10SM SCT016 BKN024 OVC037 10/06 A3002 RMK AO2 SLP160 T01000061

TAF N/A



MET'MAP, la Météo Aéronautique d'un coup d'oeil ! - Copyright ORBIFLY Décembre 2007 - Disclaimer

ORBIFLY MET'MAP TEAM :

Programmation & Développement : Alexandra Zaïnal
Conception & Développement : Baudouin d'Aumeries
Co-Programmation & Développement : Marc-Olivier Méhu
Soutien technique & logistique : Manuel Goepfert

Contact : metmap@orbifly.com




SOURCES & CREDITS :

   NOAA       Earth
Advisory